sensor_id;sensor_type;location;lat;lon;timestamp;P1;durP1;ratioP1;P2;durP2;ratioP2
37787;SDS011;23627;53.302;-6.362;2023-08-06T00:00:58;4.03;;;1.50;;
37787;SDS011;23627;53.302;-6.362;2023-08-06T00:03:24;3.55;;;1.70;;
37787;SDS011;23627;53.302;-6.362;2023-08-06T00:05:50;3.25;;;1.40;;
37787;SDS011;23627;53.302;-6.362;2023-08-06T00:08:16;7.03;;;1.70;;
37787;SDS011;23627;53.302;-6.362;2023-08-06T00:10:41;4.47;;;1.52;;
37787;SDS011;23627;53.302;-6.362;2023-08-06T00:13:07;3.97;;;1.50;;
37787;SDS011;23627;53.302;-6.362;2023-08-06T00:15:33;3.65;;;1.50;;
37787;SDS011;23627;53.302;-6.362;2023-08-06T00:17:59;3.78;;;1.20;;
37787;SDS011;23627;53.302;-6.362;2023-08-06T00:20:25;4.15;;;1.38;;
37787;SDS011;23627;53.302;-6.362;2023-08-06T00:22:50;3.05;;;1.60;;
37787;SDS011;23627;53.302;-6.362;2023-08-06T00:25:16;3.75;;;1.30;;
37787;SDS011;23627;53.302;-6.362;2023-08-06T00:27:42;3.17;;;1.40;;
37787;SDS011;23627;53.302;-6.362;2023-08-06T00:30:08;2.63;;;1.20;;
37787;SDS011;23627;53.302;-6.362;2023-08-06T00:32:34;2.97;;;1.40;;
37787;SDS011;23627;53.302;-6.362;2023-08-06T00:35:00;2.65;;;1.40;;
37787;SDS011;23627;53.302;-6.362;2023-08-06T00:37:25;3.05;;;1.50;;
37787;SDS011;23627;53.302;-6.362;2023-08-06T00:39:51;5.25;;;1.90;;
37787;SDS011;23627;53.302;-6.362;2023-08-06T00:42:17;2.63;;;1.38;;
37787;SDS011;23627;53.302;-6.362;2023-08-06T00:44:45;2.45;;;1.42;;
37787;SDS011;23627;53.302;-6.362;2023-08-06T00:47:11;3.17;;;1.25;;
37787;SDS011;23627;53.302;-6.362;2023-08-06T00:49:38;3.75;;;1.90;;
37787;SDS011;23627;53.302;-6.362;2023-08-06T00:52:04;3.63;;;1.60;;
37787;SDS011;23627;53.302;-6.362;2023-08-06T00:54:31;3.08;;;1.33;;
37787;SDS011;23627;53.302;-6.362;2023-08-06T00:56:59;3.25;;;1.40;;
37787;SDS011;23627;53.302;-6.362;2023-08-06T00:59:26;3.35;;;1.48;;
37787;SDS011;23627;53.302;-6.362;2023-08-06T01:01:52;3.95;;;1.90;;
37787;SDS011;23627;53.302;-6.362;2023-08-06T01:04:18;4.38;;;1.50;;
37787;SDS011;23627;53.302;-6.362;2023-08-06T01:12:25;2.08;;;1.30;;
37787;SDS011;23627;53.302;-6.362;2023-08-06T01:15:15;5.18;;;1.52;;
37787;SDS011;23627;53.302;-6.362;2023-08-06T01:17:55;2.42;;;1.40;;
37787;SDS011;23627;53.302;-6.362;2023-08-06T01:20:31;4.68;;;1.50;;
37787;SDS011;23627;53.302;-6.362;2023-08-06T01:22:59;3.23;;;1.60;;
37787;SDS011;23627;53.302;-6.362;2023-08-06T01:25:32;3.30;;;1.60;;
37787;SDS011;23627;53.302;-6.362;2023-08-06T01:28:03;3.88;;;1.30;;
37787;SDS011;23627;53.302;-6.362;2023-08-06T01:30:36;3.90;;;1.50;;
37787;SDS011;23627;53.302;-6.362;2023-08-06T01:33:06;3.05;;;1.27;;
37787;SDS011;23627;53.302;-6.362;2023-08-06T01:35:39;4.03;;;1.50;;
37787;SDS011;23627;53.302;-6.362;2023-08-06T01:38:07;3.35;;;1.50;;
37787;SDS011;23627;53.302;-6.362;2023-08-06T01:40:33;3.35;;;1.58;;
37787;SDS011;23627;53.302;-6.362;2023-08-06T01:42:59;4.25;;;1.77;;
37787;SDS011;23627;53.302;-6.362;2023-08-06T01:45:25;2.95;;;1.40;;
37787;SDS011;23627;53.302;-6.362;2023-08-06T01:47:51;3.30;;;1.35;;
37787;SDS011;23627;53.302;-6.362;2023-08-06T01:50:17;4.63;;;1.38;;
37787;SDS011;23627;53.302;-6.362;2023-08-06T01:52:43;3.25;;;1.52;;
37787;SDS011;23627;53.302;-6.362;2023-08-06T01:55:08;3.70;;;1.85;;
37787;SDS011;23627;53.302;-6.362;2023-08-06T01:57:37;4.65;;;1.75;;
37787;SDS011;23627;53.302;-6.362;2023-08-06T02:00:03;3.47;;;1.60;;
37787;SDS011;23627;53.302;-6.362;2023-08-06T02:02:29;5.00;;;1.65;;
37787;SDS011;23627;53.302;-6.362;2023-08-06T02:04:55;5.15;;;1.50;;
37787;SDS011;23627;53.302;-6.362;2023-08-06T02:07:23;5.03;;;1.73;;
37787;SDS011;23627;53.302;-6.362;2023-08-06T02:09:49;3.85;;;1.77;;
37787;SDS011;23627;53.302;-6.362;2023-08-06T02:12:14;5.35;;;1.70;;
37787;SDS011;23627;53.302;-6.362;2023-08-06T02:14:40;2.97;;;1.83;;
37787;SDS011;23627;53.302;-6.362;2023-08-06T02:17:06;4.40;;;1.90;;
37787;SDS011;23627;53.302;-6.362;2023-08-06T02:19:31;2.22;;;1.55;;
37787;SDS011;23627;53.302;-6.362;2023-08-06T02:21:57;2.83;;;1.70;;
37787;SDS011;23627;53.302;-6.362;2023-08-06T02:24:23;4.15;;;1.80;;
37787;SDS011;23627;53.302;-6.362;2023-08-06T02:26:49;3.65;;;1.58;;
37787;SDS011;23627;53.302;-6.362;2023-08-06T02:29:16;5.57;;;1.80;;
37787;SDS011;23627;53.302;-6.362;2023-08-06T02:31:50;5.10;;;2.10;;
37787;SDS011;23627;53.302;-6.362;2023-08-06T02:45:37;4.82;;;2.08;;
37787;SDS011;23627;53.302;-6.362;2023-08-06T02:48:05;4.60;;;1.88;;
37787;SDS011;23627;53.302;-6.362;2023-08-06T03:22:23;3.75;;;1.40;;
37787;SDS011;23627;53.302;-6.362;2023-08-06T03:24:52;4.07;;;1.63;;
37787;SDS011;23627;53.302;-6.362;2023-08-06T03:27:21;4.35;;;2.38;;
37787;SDS011;23627;53.302;-6.362;2023-08-06T03:47:54;4.70;;;1.42;;
37787;SDS011;23627;53.302;-6.362;2023-08-06T03:50:20;3.22;;;1.60;;
37787;SDS011;23627;53.302;-6.362;2023-08-06T03:52:52;4.18;;;1.65;;
37787;SDS011;23627;53.302;-6.362;2023-08-06T04:13:58;5.50;;;2.13;;
37787;SDS011;23627;53.302;-6.362;2023-08-06T04:19:19;3.67;;;1.55;;
37787;SDS011;23627;53.302;-6.362;2023-08-06T04:21:45;4.30;;;1.65;;
37787;SDS011;23627;53.302;-6.362;2023-08-06T04:50:03;3.30;;;1.60;;
37787;SDS011;23627;53.302;-6.362;2023-08-06T04:52:29;3.47;;;1.63;;
37787;SDS011;23627;53.302;-6.362;2023-08-06T04:54:57;3.20;;;1.67;;
37787;SDS011;23627;53.302;-6.362;2023-08-06T04:57:23;4.45;;;1.38;;
37787;SDS011;23627;53.302;-6.362;2023-08-06T04:59:49;3.38;;;1.70;;
37787;SDS011;23627;53.302;-6.362;2023-08-06T05:02:15;3.15;;;1.80;;
37787;SDS011;23627;53.302;-6.362;2023-08-06T05:04:41;3.88;;;1.70;;
37787;SDS011;23627;53.302;-6.362;2023-08-06T05:07:07;3.08;;;1.45;;
37787;SDS011;23627;53.302;-6.362;2023-08-06T05:09:32;4.53;;;1.60;;
37787;SDS011;23627;53.302;-6.362;2023-08-06T05:12:01;5.03;;;1.80;;
37787;SDS011;23627;53.302;-6.362;2023-08-06T05:14:28;4.65;;;1.60;;
37787;SDS011;23627;53.302;-6.362;2023-08-06T05:16:54;4.60;;;1.80;;
37787;SDS011;23627;53.302;-6.362;2023-08-06T05:19:20;3.58;;;1.77;;
37787;SDS011;23627;53.302;-6.362;2023-08-06T05:21:46;3.78;;;1.92;;
37787;SDS011;23627;53.302;-6.362;2023-08-06T05:24:11;4.50;;;1.70;;
37787;SDS011;23627;53.302;-6.362;2023-08-06T05:26:37;5.57;;;1.75;;
37787;SDS011;23627;53.302;-6.362;2023-08-06T05:29:03;3.42;;;1.52;;
37787;SDS011;23627;53.302;-6.362;2023-08-06T05:31:29;5.30;;;1.90;;
37787;SDS011;23627;53.302;-6.362;2023-08-06T05:33:55;3.33;;;1.58;;
37787;SDS011;23627;53.302;-6.362;2023-08-06T05:36:20;4.60;;;1.77;;
37787;SDS011;23627;53.302;-6.362;2023-08-06T05:38:46;3.85;;;1.80;;
37787;SDS011;23627;53.302;-6.362;2023-08-06T05:41:12;3.70;;;1.75;;
37787;SDS011;23627;53.302;-6.362;2023-08-06T05:43:38;3.40;;;1.70;;
37787;SDS011;23627;53.302;-6.362;2023-08-06T05:46:04;4.32;;;1.52;;
37787;SDS011;23627;53.302;-6.362;2023-08-06T05:48:30;2.60;;;1.50;;
37787;SDS011;23627;53.302;-6.362;2023-08-06T05:50:57;3.38;;;1.40;;
37787;SDS011;23627;53.302;-6.362;2023-08-06T05:53:23;4.43;;;1.80;;
37787;SDS011;23627;53.302;-6.362;2023-08-06T05:55:49;3.38;;;1.52;;
37787;SDS011;23627;53.302;-6.362;2023-08-06T05:58:15;6.07;;;1.70;;
37787;SDS011;23627;53.302;-6.362;2023-08-06T06:00:41;3.05;;;1.65;;
37787;SDS011;23627;53.302;-6.362;2023-08-06T06:03:07;3.35;;;1.52;;
37787;SDS011;23627;53.302;-6.362;2023-08-06T06:05:33;6.53;;;1.67;;
37787;SDS011;23627;53.302;-6.362;2023-08-06T06:07:58;3.47;;;1.55;;
37787;SDS011;23627;53.302;-6.362;2023-08-06T06:10:24;3.75;;;1.60;;
37787;SDS011;23627;53.302;-6.362;2023-08-06T06:12:50;4.40;;;1.48;;
37787;SDS011;23627;53.302;-6.362;2023-08-06T06:15:15;3.65;;;1.30;;
37787;SDS011;23627;53.302;-6.362;2023-08-06T06:17:41;3.28;;;1.60;;
37787;SDS011;23627;53.302;-6.362;2023-08-06T06:20:07;3.22;;;1.73;;
37787;SDS011;23627;53.302;-6.362;2023-08-06T07:01:33;5.40;;;1.35;;
37787;SDS011;23627;53.302;-6.362;2023-08-06T07:29:54;3.65;;;1.35;;
37787;SDS011;23627;53.302;-6.362;2023-08-06T07:32:20;4.85;;;1.27;;
37787;SDS011;23627;53.302;-6.362;2023-08-06T07:34:45;3.17;;;1.30;;
37787;SDS011;23627;53.302;-6.362;2023-08-06T07:37:11;2.58;;;1.30;;
37787;SDS011;23627;53.302;-6.362;2023-08-06T07:39:40;6.22;;;1.50;;
37787;SDS011;23627;53.302;-6.362;2023-08-06T07:42:10;3.88;;;1.75;;
37787;SDS011;23627;53.302;-6.362;2023-08-06T07:44:36;3.10;;;1.27;;
37787;SDS011;23627;53.302;-6.362;2023-08-06T07:47:02;2.95;;;1.40;;
37787;SDS011;23627;53.302;-6.362;2023-08-06T07:49:27;3.85;;;1.88;;
37787;SDS011;23627;53.302;-6.362;2023-08-06T07:51:53;4.03;;;1.50;;
37787;SDS011;23627;53.302;-6.362;2023-08-06T07:54:19;4.43;;;1.25;;
37787;SDS011;23627;53.302;-6.362;2023-08-06T07:56:45;3.22;;;1.40;;
37787;SDS011;23627;53.302;-6.362;2023-08-06T07:59:10;4.07;;;1.65;;
37787;SDS011;23627;53.302;-6.362;2023-08-06T08:01:36;3.47;;;1.40;;
37787;SDS011;23627;53.302;-6.362;2023-08-06T08:04:02;3.92;;;1.70;;
37787;SDS011;23627;53.302;-6.362;2023-08-06T08:06:29;3.63;;;1.48;;
37787;SDS011;23627;53.302;-6.362;2023-08-06T08:08:55;2.78;;;1.33;;
37787;SDS011;23627;53.302;-6.362;2023-08-06T08:11:25;4.38;;;1.60;;
37787;SDS011;23627;53.302;-6.362;2023-08-06T08:13:51;2.83;;;1.30;;
37787;SDS011;23627;53.302;-6.362;2023-08-06T08:16:16;3.15;;;1.35;;
37787;SDS011;23627;53.302;-6.362;2023-08-06T08:18:42;3.10;;;1.35;;
37787;SDS011;23627;53.302;-6.362;2023-08-06T08:21:08;3.33;;;1.25;;
37787;SDS011;23627;53.302;-6.362;2023-08-06T08:23:34;3.50;;;1.45;;
37787;SDS011;23627;53.302;-6.362;2023-08-06T08:26:00;3.63;;;1.58;;
37787;SDS011;23627;53.302;-6.362;2023-08-06T08:28:27;3.50;;;1.42;;
37787;SDS011;23627;53.302;-6.362;2023-08-06T08:30:53;4.78;;;1.55;;
37787;SDS011;23627;53.302;-6.362;2023-08-06T08:33:18;3.75;;;1.92;;
37787;SDS011;23627;53.302;-6.362;2023-08-06T08:35:47;4.20;;;1.60;;
37787;SDS011;23627;53.302;-6.362;2023-08-06T08:38:13;2.95;;;1.60;;
37787;SDS011;23627;53.302;-6.362;2023-08-06T08:40:46;2.88;;;1.70;;
37787;SDS011;23627;53.302;-6.362;2023-08-06T08:43:16;4.10;;;2.13;;
37787;SDS011;23627;53.302;-6.362;2023-08-06T08:45:44;3.20;;;2.08;;
37787;SDS011;23627;53.302;-6.362;2023-08-06T08:48:14;4.38;;;2.58;;
37787;SDS011;23627;53.302;-6.362;2023-08-06T08:50:42;4.97;;;2.40;;
37787;SDS011;23627;53.302;-6.362;2023-08-06T08:53:10;3.70;;;2.38;;
37787;SDS011;23627;53.302;-6.362;2023-08-06T08:55:38;3.85;;;2.75;;
37787;SDS011;23627;53.302;-6.362;2023-08-06T08:58:05;5.60;;;3.42;;
37787;SDS011;23627;53.302;-6.362;2023-08-06T09:00:31;7.05;;;4.18;;
37787;SDS011;23627;53.302;-6.362;2023-08-06T09:02:57;4.82;;;3.30;;
37787;SDS011;23627;53.302;-6.362;2023-08-06T09:05:24;4.47;;;2.88;;
37787;SDS011;23627;53.302;-6.362;2023-08-06T09:07:53;4.93;;;3.15;;
37787;SDS011;23627;53.302;-6.362;2023-08-06T09:10:22;5.25;;;2.70;;
37787;SDS011;23627;53.302;-6.362;2023-08-06T09:12:50;5.07;;;2.15;;
37787;SDS011;23627;53.302;-6.362;2023-08-06T09:15:18;4.18;;;2.15;;
37787;SDS011;23627;53.302;-6.362;2023-08-06T09:17:45;4.97;;;1.90;;
37787;SDS011;23627;53.302;-6.362;2023-08-06T09:20:12;2.67;;;1.75;;
37787;SDS011;23627;53.302;-6.362;2023-08-06T09:31:08;4.75;;;1.98;;
37787;SDS011;23627;53.302;-6.362;2023-08-06T09:33:36;3.72;;;1.63;;
37787;SDS011;23627;53.302;-6.362;2023-08-06T09:36:09;5.55;;;1.80;;
37787;SDS011;23627;53.302;-6.362;2023-08-06T09:38:39;4.13;;;1.70;;
37787;SDS011;23627;53.302;-6.362;2023-08-06T09:41:06;4.40;;;1.75;;
37787;SDS011;23627;53.302;-6.362;2023-08-06T09:43:39;5.30;;;1.52;;
37787;SDS011;23627;53.302;-6.362;2023-08-06T09:46:15;2.90;;;1.42;;
37787;SDS011;23627;53.302;-6.362;2023-08-06T09:48:44;2.97;;;1.40;;
37787;SDS011;23627;53.302;-6.362;2023-08-06T09:51:10;3.50;;;1.33;;
37787;SDS011;23627;53.302;-6.362;2023-08-06T09:53:38;4.07;;;1.70;;
37787;SDS011;23627;53.302;-6.362;2023-08-06T09:56:06;3.85;;;1.35;;
37787;SDS011;23627;53.302;-6.362;2023-08-06T09:58:31;3.42;;;1.60;;
37787;SDS011;23627;53.302;-6.362;2023-08-06T10:00:58;5.13;;;1.50;;
37787;SDS011;23627;53.302;-6.362;2023-08-06T10:03:27;3.75;;;1.42;;
37787;SDS011;23627;53.302;-6.362;2023-08-06T10:05:55;3.25;;;1.50;;
37787;SDS011;23627;53.302;-6.362;2023-08-06T10:08:22;3.45;;;1.52;;
37787;SDS011;23627;53.302;-6.362;2023-08-06T10:10:48;4.10;;;1.45;;
37787;SDS011;23627;53.302;-6.362;2023-08-06T10:13:14;3.00;;;1.20;;
37787;SDS011;23627;53.302;-6.362;2023-08-06T10:15:42;3.22;;;1.40;;
37787;SDS011;23627;53.302;-6.362;2023-08-06T10:18:09;4.15;;;1.45;;
37787;SDS011;23627;53.302;-6.362;2023-08-06T10:20:36;4.57;;;1.30;;
37787;SDS011;23627;53.302;-6.362;2023-08-06T10:23:03;1.27;;;1.00;;
37787;SDS011;23627;53.302;-6.362;2023-08-06T10:25:31;3.42;;;1.00;;
37787;SDS011;23627;53.302;-6.362;2023-08-06T10:27:58;4.15;;;0.98;;
37787;SDS011;23627;53.302;-6.362;2023-08-06T10:30:25;3.47;;;1.35;;
37787;SDS011;23627;53.302;-6.362;2023-08-06T10:33:03;1.73;;;0.90;;
37787;SDS011;23627;53.302;-6.362;2023-08-06T10:35:48;3.03;;;1.00;;
37787;SDS011;23627;53.302;-6.362;2023-08-06T10:40:49;1.90;;;0.90;;
37787;SDS011;23627;53.302;-6.362;2023-08-06T10:43:27;2.13;;;1.00;;
37787;SDS011;23627;53.302;-6.362;2023-08-06T10:46:03;2.60;;;0.90;;
37787;SDS011;23627;53.302;-6.362;2023-08-06T10:48:39;3.72;;;1.10;;
37787;SDS011;23627;53.302;-6.362;2023-08-06T10:51:11;3.55;;;0.82;;
37787;SDS011;23627;53.302;-6.362;2023-08-06T10:53:38;4.15;;;1.00;;
37787;SDS011;23627;53.302;-6.362;2023-08-06T10:56:19;2.42;;;0.90;;
37787;SDS011;23627;53.302;-6.362;2023-08-06T10:58:50;2.58;;;1.10;;
37787;SDS011;23627;53.302;-6.362;2023-08-06T11:01:18;3.67;;;1.13;;
37787;SDS011;23627;53.302;-6.362;2023-08-06T11:03:44;3.67;;;1.10;;
37787;SDS011;23627;53.302;-6.362;2023-08-06T11:06:16;3.63;;;1.00;;
37787;SDS011;23627;53.302;-6.362;2023-08-06T11:08:47;2.80;;;1.30;;
37787;SDS011;23627;53.302;-6.362;2023-08-06T11:11:18;3.80;;;1.20;;
37787;SDS011;23627;53.302;-6.362;2023-08-06T11:13:44;3.92;;;1.20;;
37787;SDS011;23627;53.302;-6.362;2023-08-06T11:16:18;5.63;;;1.52;;
37787;SDS011;23627;53.302;-6.362;2023-08-06T11:18:46;3.90;;;1.02;;
37787;SDS011;23627;53.302;-6.362;2023-08-06T11:21:12;1.83;;;1.02;;
37787;SDS011;23627;53.302;-6.362;2023-08-06T11:23:38;3.80;;;1.02;;
37787;SDS011;23627;53.302;-6.362;2023-08-06T11:26:05;2.83;;;0.90;;
37787;SDS011;23627;53.302;-6.362;2023-08-06T11:28:31;2.63;;;0.60;;
37787;SDS011;23627;53.302;-6.362;2023-08-06T11:30:57;1.95;;;0.60;;
37787;SDS011;23627;53.302;-6.362;2023-08-06T11:33:26;1.70;;;0.60;;
37787;SDS011;23627;53.302;-6.362;2023-08-06T11:35:56;1.50;;;0.60;;
37787;SDS011;23627;53.302;-6.362;2023-08-06T11:38:25;1.65;;;0.77;;
37787;SDS011;23627;53.302;-6.362;2023-08-06T11:40:52;1.15;;;0.60;;
37787;SDS011;23627;53.302;-6.362;2023-08-06T11:43:21;1.52;;;0.70;;
37787;SDS011;23627;53.302;-6.362;2023-08-06T11:45:47;2.30;;;0.77;;
37787;SDS011;23627;53.302;-6.362;2023-08-06T11:48:14;1.98;;;0.68;;
37787;SDS011;23627;53.302;-6.362;2023-08-06T11:50:40;2.13;;;0.60;;
37787;SDS011;23627;53.302;-6.362;2023-08-06T11:53:06;1.77;;;0.90;;
37787;SDS011;23627;53.302;-6.362;2023-08-06T11:55:32;2.83;;;0.70;;
37787;SDS011;23627;53.302;-6.362;2023-08-06T11:58:03;2.47;;;0.90;;
37787;SDS011;23627;53.302;-6.362;2023-08-06T12:00:29;2.17;;;0.95;;
37787;SDS011;23627;53.302;-6.362;2023-08-06T12:02:55;2.10;;;0.90;;
37787;SDS011;23627;53.302;-6.362;2023-08-06T12:05:22;1.52;;;0.73;;
37787;SDS011;23627;53.302;-6.362;2023-08-06T12:07:56;2.65;;;0.77;;
37787;SDS011;23627;53.302;-6.362;2023-08-06T12:10:23;2.50;;;0.98;;
37787;SDS011;23627;53.302;-6.362;2023-08-06T12:12:50;1.30;;;0.90;;
37787;SDS011;23627;53.302;-6.362;2023-08-06T12:15:17;2.00;;;1.00;;
37787;SDS011;23627;53.302;-6.362;2023-08-06T12:17:43;1.25;;;0.70;;
37787;SDS011;23627;53.302;-6.362;2023-08-06T12:20:09;2.22;;;0.73;;
37787;SDS011;23627;53.302;-6.362;2023-08-06T12:22:35;1.52;;;0.50;;
37787;SDS011;23627;53.302;-6.362;2023-08-06T12:25:04;1.80;;;0.75;;
37787;SDS011;23627;53.302;-6.362;2023-08-06T12:27:36;1.23;;;0.50;;
37787;SDS011;23627;53.302;-6.362;2023-08-06T12:30:08;2.35;;;0.60;;
37787;SDS011;23627;53.302;-6.362;2023-08-06T12:32:35;0.90;;;0.50;;
37787;SDS011;23627;53.302;-6.362;2023-08-06T12:35:01;1.88;;;0.50;;
37787;SDS011;23627;53.302;-6.362;2023-08-06T12:37:27;1.20;;;0.68;;
37787;SDS011;23627;53.302;-6.362;2023-08-06T12:39:53;3.10;;;0.57;;
37787;SDS011;23627;53.302;-6.362;2023-08-06T12:42:19;1.75;;;0.50;;
37787;SDS011;23627;53.302;-6.362;2023-08-06T12:44:45;1.30;;;0.50;;
37787;SDS011;23627;53.302;-6.362;2023-08-06T12:47:13;1.52;;;0.60;;
37787;SDS011;23627;53.302;-6.362;2023-08-06T12:49:39;1.25;;;0.50;;
37787;SDS011;23627;53.302;-6.362;2023-08-06T12:52:04;2.42;;;0.60;;
37787;SDS011;23627;53.302;-6.362;2023-08-06T12:54:32;2.00;;;0.52;;
37787;SDS011;23627;53.302;-6.362;2023-08-06T12:57:01;2.63;;;0.60;;
37787;SDS011;23627;53.302;-6.362;2023-08-06T12:59:27;2.63;;;0.70;;
37787;SDS011;23627;53.302;-6.362;2023-08-06T13:01:53;1.25;;;0.70;;
37787;SDS011;23627;53.302;-6.362;2023-08-06T13:04:19;2.40;;;0.70;;
37787;SDS011;23627;53.302;-6.362;2023-08-06T13:06:45;2.10;;;0.85;;
37787;SDS011;23627;53.302;-6.362;2023-08-06T13:09:11;1.58;;;0.57;;
37787;SDS011;23627;53.302;-6.362;2023-08-06T13:11:38;1.52;;;0.55;;
37787;SDS011;23627;53.302;-6.362;2023-08-06T13:14:06;1.77;;;0.63;;
37787;SDS011;23627;53.302;-6.362;2023-08-06T13:16:33;1.15;;;0.45;;
37787;SDS011;23627;53.302;-6.362;2023-08-06T13:18:59;1.00;;;0.43;;
37787;SDS011;23627;53.302;-6.362;2023-08-06T13:21:31;1.40;;;0.50;;
37787;SDS011;23627;53.302;-6.362;2023-08-06T13:23:59;1.38;;;0.57;;
37787;SDS011;23627;53.302;-6.362;2023-08-06T13:26:29;2.55;;;0.70;;
37787;SDS011;23627;53.302;-6.362;2023-08-06T13:28:56;1.55;;;0.68;;
37787;SDS011;23627;53.302;-6.362;2023-08-06T13:31:23;1.55;;;0.50;;
37787;SDS011;23627;53.302;-6.362;2023-08-06T13:33:49;1.45;;;0.60;;
37787;SDS011;23627;53.302;-6.362;2023-08-06T13:36:16;2.35;;;0.70;;
37787;SDS011;23627;53.302;-6.362;2023-08-06T13:38:45;1.02;;;0.50;;
37787;SDS011;23627;53.302;-6.362;2023-08-06T13:41:11;1.73;;;0.57;;
37787;SDS011;23627;53.302;-6.362;2023-08-06T13:43:36;1.20;;;0.70;;
37787;SDS011;23627;53.302;-6.362;2023-08-06T13:46:04;2.75;;;0.70;;
37787;SDS011;23627;53.302;-6.362;2023-08-06T13:48:29;2.95;;;0.70;;
37787;SDS011;23627;53.302;-6.362;2023-08-06T13:50:55;2.33;;;0.70;;
37787;SDS011;23627;53.302;-6.362;2023-08-06T13:53:21;1.92;;;0.98;;
37787;SDS011;23627;53.302;-6.362;2023-08-06T13:55:47;3.05;;;1.10;;
37787;SDS011;23627;53.302;-6.362;2023-08-06T13:58:13;2.30;;;0.70;;
37787;SDS011;23627;53.302;-6.362;2023-08-06T14:00:38;1.52;;;0.68;;
37787;SDS011;23627;53.302;-6.362;2023-08-06T14:03:04;1.33;;;0.80;;
37787;SDS011;23627;53.302;-6.362;2023-08-06T14:05:30;1.58;;;0.60;;
37787;SDS011;23627;53.302;-6.362;2023-08-06T14:07:56;1.13;;;0.60;;
37787;SDS011;23627;53.302;-6.362;2023-08-06T14:10:21;1.85;;;0.60;;
37787;SDS011;23627;53.302;-6.362;2023-08-06T14:12:47;2.03;;;0.75;;
37787;SDS011;23627;53.302;-6.362;2023-08-06T14:15:15;2.28;;;0.60;;
37787;SDS011;23627;53.302;-6.362;2023-08-06T14:17:41;1.77;;;0.82;;
37787;SDS011;23627;53.302;-6.362;2023-08-06T14:20:07;2.15;;;0.70;;
37787;SDS011;23627;53.302;-6.362;2023-08-06T14:22:36;1.65;;;0.68;;
37787;SDS011;23627;53.302;-6.362;2023-08-06T14:25:03;3.55;;;0.90;;
37787;SDS011;23627;53.302;-6.362;2023-08-06T14:27:29;2.35;;;0.90;;
37787;SDS011;23627;53.302;-6.362;2023-08-06T14:29:55;2.00;;;0.70;;
37787;SDS011;23627;53.302;-6.362;2023-08-06T14:32:21;2.33;;;0.93;;
37787;SDS011;23627;53.302;-6.362;2023-08-06T14:34:46;1.35;;;0.80;;
37787;SDS011;23627;53.302;-6.362;2023-08-06T14:37:13;5.10;;;1.10;;
37787;SDS011;23627;53.302;-6.362;2023-08-06T14:39:40;3.17;;;0.70;;
37787;SDS011;23627;53.302;-6.362;2023-08-06T14:42:06;2.60;;;1.00;;
37787;SDS011;23627;53.302;-6.362;2023-08-06T14:44:32;1.15;;;0.60;;
37787;SDS011;23627;53.302;-6.362;2023-08-06T14:46:58;1.25;;;0.60;;
37787;SDS011;23627;53.302;-6.362;2023-08-06T14:49:24;1.55;;;1.00;;
37787;SDS011;23627;53.302;-6.362;2023-08-06T14:51:50;1.20;;;0.70;;
37787;SDS011;23627;53.302;-6.362;2023-08-06T14:54:24;2.65;;;0.93;;
37787;SDS011;23627;53.302;-6.362;2023-08-06T14:56:54;2.28;;;0.98;;
37787;SDS011;23627;53.302;-6.362;2023-08-06T14:59:21;4.15;;;1.10;;
37787;SDS011;23627;53.302;-6.362;2023-08-06T15:01:48;1.73;;;0.88;;
37787;SDS011;23627;53.302;-6.362;2023-08-06T15:04:14;0.90;;;0.68;;
37787;SDS011;23627;53.302;-6.362;2023-08-06T15:06:46;2.40;;;0.68;;
37787;SDS011;23627;53.302;-6.362;2023-08-06T15:09:14;2.27;;;0.70;;
37787;SDS011;23627;53.302;-6.362;2023-08-06T15:11:49;1.38;;;0.80;;
37787;SDS011;23627;53.302;-6.362;2023-08-06T15:14:15;2.70;;;0.70;;
37787;SDS011;23627;53.302;-6.362;2023-08-06T15:16:47;2.03;;;0.70;;
37787;SDS011;23627;53.302;-6.362;2023-08-06T15:19:13;1.85;;;0.75;;
37787;SDS011;23627;53.302;-6.362;2023-08-06T15:25:06;1.85;;;0.90;;
37787;SDS011;23627;53.302;-6.362;2023-08-06T15:27:46;1.10;;;0.60;;
37787;SDS011;23627;53.302;-6.362;2023-08-06T15:30:20;2.92;;;0.90;;
37787;SDS011;23627;53.302;-6.362;2023-08-06T15:32:52;2.00;;;0.77;;
37787;SDS011;23627;53.302;-6.362;2023-08-06T15:35:18;1.58;;;0.60;;
37787;SDS011;23627;53.302;-6.362;2023-08-06T15:37:45;1.40;;;0.60;;
37787;SDS011;23627;53.302;-6.362;2023-08-06T15:40:11;0.75;;;0.40;;
37787;SDS011;23627;53.302;-6.362;2023-08-06T15:42:38;1.35;;;0.60;;
37787;SDS011;23627;53.302;-6.362;2023-08-06T15:45:05;0.90;;;0.50;;
37787;SDS011;23627;53.302;-6.362;2023-08-06T15:47:31;1.10;;;0.50;;
37787;SDS011;23627;53.302;-6.362;2023-08-06T15:50:06;1.10;;;0.82;;
37787;SDS011;23627;53.302;-6.362;2023-08-06T15:52:33;2.63;;;0.90;;
37787;SDS011;23627;53.302;-6.362;2023-08-06T15:55:06;0.90;;;0.60;;
37787;SDS011;23627;53.302;-6.362;2023-08-06T15:57:34;1.33;;;0.60;;
37787;SDS011;23627;53.302;-6.362;2023-08-06T16:00:02;1.60;;;0.82;;
37787;SDS011;23627;53.302;-6.362;2023-08-06T16:02:31;1.20;;;0.50;;
37787;SDS011;23627;53.302;-6.362;2023-08-06T16:05:00;1.77;;;0.55;;
37787;SDS011;23627;53.302;-6.362;2023-08-06T16:07:28;1.35;;;0.50;;
37787;SDS011;23627;53.302;-6.362;2023-08-06T16:09:54;1.35;;;0.60;;
37787;SDS011;23627;53.302;-6.362;2023-08-06T16:12:26;1.17;;;0.52;;
37787;SDS011;23627;53.302;-6.362;2023-08-06T16:14:53;1.10;;;0.60;;
37787;SDS011;23627;53.302;-6.362;2023-08-06T16:17:18;1.33;;;0.60;;
37787;SDS011;23627;53.302;-6.362;2023-08-06T16:19:44;1.88;;;0.82;;
37787;SDS011;23627;53.302;-6.362;2023-08-06T16:22:17;0.95;;;0.70;;
37787;SDS011;23627;53.302;-6.362;2023-08-06T16:24:47;2.50;;;0.70;;
37787;SDS011;23627;53.302;-6.362;2023-08-06T16:27:14;1.98;;;0.82;;
37787;SDS011;23627;53.302;-6.362;2023-08-06T16:29:41;1.55;;;0.85;;
37787;SDS011;23627;53.302;-6.362;2023-08-06T16:32:27;1.83;;;0.88;;
37787;SDS011;23627;53.302;-6.362;2023-08-06T16:35:02;1.00;;;0.50;;
37787;SDS011;23627;53.302;-6.362;2023-08-06T16:37:44;1.88;;;0.60;;
37787;SDS011;23627;53.302;-6.362;2023-08-06T16:40:27;3.47;;;1.33;;
37787;SDS011;23627;53.302;-6.362;2023-08-06T16:43:16;2.97;;;1.00;;
37787;SDS011;23627;53.302;-6.362;2023-08-06T16:45:42;2.88;;;1.20;;
37787;SDS011;23627;53.302;-6.362;2023-08-06T16:48:24;3.90;;;1.05;;
37787;SDS011;23627;53.302;-6.362;2023-08-06T16:50:54;2.38;;;0.70;;
37787;SDS011;23627;53.302;-6.362;2023-08-06T16:57:11;1.58;;;0.90;;
37787;SDS011;23627;53.302;-6.362;2023-08-06T16:59:41;2.95;;;0.80;;
37787;SDS011;23627;53.302;-6.362;2023-08-06T17:02:12;3.13;;;0.90;;
37787;SDS011;23627;53.302;-6.362;2023-08-06T17:04:43;1.40;;;0.80;;
37787;SDS011;23627;53.302;-6.362;2023-08-06T17:07:12;1.77;;;0.80;;
37787;SDS011;23627;53.302;-6.362;2023-08-06T17:09:41;6.82;;;2.97;;
37787;SDS011;23627;53.302;-6.362;2023-08-06T17:12:08;5.25;;;2.72;;
37787;SDS011;23627;53.302;-6.362;2023-08-06T17:14:35;3.30;;;1.35;;
37787;SDS011;23627;53.302;-6.362;2023-08-06T17:17:01;2.10;;;0.77;;
37787;SDS011;23627;53.302;-6.362;2023-08-06T17:19:27;1.63;;;0.77;;
37787;SDS011;23627;53.302;-6.362;2023-08-06T17:21:56;3.53;;;0.90;;
37787;SDS011;23627;53.302;-6.362;2023-08-06T17:28:09;1.70;;;0.80;;
37787;SDS011;23627;53.302;-6.362;2023-08-06T17:30:41;2.25;;;0.85;;
37787;SDS011;23627;53.302;-6.362;2023-08-06T17:36:23;1.95;;;0.73;;
37787;SDS011;23627;53.302;-6.362;2023-08-06T17:38:49;2.25;;;0.80;;
37787;SDS011;23627;53.302;-6.362;2023-08-06T17:41:15;3.00;;;1.00;;
37787;SDS011;23627;53.302;-6.362;2023-08-06T17:43:42;4.00;;;0.90;;
37787;SDS011;23627;53.302;-6.362;2023-08-06T17:46:09;1.92;;;0.70;;
37787;SDS011;23627;53.302;-6.362;2023-08-06T17:48:35;3.10;;;1.35;;
37787;SDS011;23627;53.302;-6.362;2023-08-06T17:51:01;2.53;;;1.00;;
37787;SDS011;23627;53.302;-6.362;2023-08-06T17:53:27;3.75;;;1.13;;
37787;SDS011;23627;53.302;-6.362;2023-08-06T17:56:00;2.65;;;1.00;;
37787;SDS011;23627;53.302;-6.362;2023-08-06T17:58:28;2.95;;;1.10;;
37787;SDS011;23627;53.302;-6.362;2023-08-06T18:00:55;3.58;;;1.38;;